SCPY weather

Cerro Castillo Airport
Cerro Castillo, Magallanes Region, Chile

Public forecast

Using degrees Celsius for public forecast. Weather courtesy of forecast.io.

METAR (pilot weather report)

Report is more than 6 hours old.

Closest report is 28 de Noviembre Airport, 21.0 nm (39.0 km) SSE. Retrieved 2019/04/17 11:40 UTC (5 days ago):

SAWT 171140Z 20006KT 9999 -DZ SCT020 01/M01 Q1000

TAF (pilot weather forecast)

Forecast is more than 12 hours old.

Closest forecast is Tte. Julio Gallardo Airport, 25.6 nm (47.4 km) SSW. Retrieved 2019/04/18 12:00 UTC (4 days ago):

TAF SCNT 181110Z 1812/1900 30020G35KT 9999 BKN020 TN09/1812Z TX11/1818Z BECMG 1815/1817 8000 -SHRA BKN018 BECMG 1820/1822 27015G25KT